sensor_id;sensor_type;location;lat;lon;timestamp;temperature;humidity
21861;DHT22;11095;48.066;8.540;2023-02-22T00:00:37;1.70;99.90
21861;DHT22;11095;48.066;8.540;2023-02-22T00:03:15;1.60;99.90
21861;DHT22;11095;48.066;8.540;2023-02-22T00:05:43;1.60;99.90
21861;DHT22;11095;48.066;8.540;2023-02-22T00:08:15;1.60;99.90
21861;DHT22;11095;48.066;8.540;2023-02-22T00:10:41;1.60;99.90
21861;DHT22;11095;48.066;8.540;2023-02-22T00:13:08;1.60;99.90
21861;DHT22;11095;48.066;8.540;2023-02-22T00:15:34;1.60;99.90
21861;DHT22;11095;48.066;8.540;2023-02-22T00:18:00;1.50;99.90
21861;DHT22;11095;48.066;8.540;2023-02-22T00:20:26;1.50;99.90
21861;DHT22;11095;48.066;8.540;2023-02-22T00:22:52;1.50;99.90
21861;DHT22;11095;48.066;8.540;2023-02-22T00:25:21;1.50;99.90
21861;DHT22;11095;48.066;8.540;2023-02-22T00:27:47;1.40;99.90
21861;DHT22;11095;48.066;8.540;2023-02-22T00:30:20;1.40;99.90
21861;DHT22;11095;48.066;8.540;2023-02-22T00:32:47;1.30;99.90
21861;DHT22;11095;48.066;8.540;2023-02-22T00:35:15;1.30;99.90
21861;DHT22;11095;48.066;8.540;2023-02-22T00:37:41;1.30;99.90
21861;DHT22;11095;48.066;8.540;2023-02-22T00:40:13;1.20;99.90
21861;DHT22;11095;48.066;8.540;2023-02-22T00:42:39;1.20;99.90
21861;DHT22;11095;48.066;8.540;2023-02-22T00:45:05;1.20;99.90
21861;DHT22;11095;48.066;8.540;2023-02-22T00:47:31;1.20;99.90
21861;DHT22;11095;48.066;8.540;2023-02-22T00:49:57;1.10;99.90
21861;DHT22;11095;48.066;8.540;2023-02-22T00:52:23;1.10;99.90
21861;DHT22;11095;48.066;8.540;2023-02-22T00:54:48;1.10;99.90
21861;DHT22;11095;48.066;8.540;2023-02-22T00:57:14;1.00;99.90
21861;DHT22;11095;48.066;8.540;2023-02-22T00:59:40;1.00;99.90
21861;DHT22;11095;48.066;8.540;2023-02-22T01:02:05;1.00;99.90
21861;DHT22;11095;48.066;8.540;2023-02-22T01:04:31;1.00;99.90
21861;DHT22;11095;48.066;8.540;2023-02-22T01:06:57;1.00;99.90
21861;DHT22;11095;48.066;8.540;2023-02-22T01:09:25;1.00;99.90
21861;DHT22;11095;48.066;8.540;2023-02-22T01:11:55;1.00;99.90
21861;DHT22;11095;48.066;8.540;2023-02-22T01:14:22;1.00;99.90
21861;DHT22;11095;48.066;8.540;2023-02-22T01:16:49;1.00;99.90
21861;DHT22;11095;48.066;8.540;2023-02-22T01:19:15;0.90;99.90
21861;DHT22;11095;48.066;8.540;2023-02-22T01:21:41;0.90;99.90
21861;DHT22;11095;48.066;8.540;2023-02-22T01:24:07;0.90;99.90
21861;DHT22;11095;48.066;8.540;2023-02-22T01:26:33;0.90;99.90
21861;DHT22;11095;48.066;8.540;2023-02-22T01:28:59;0.90;99.90
21861;DHT22;11095;48.066;8.540;2023-02-22T01:31:25;0.80;99.90
21861;DHT22;11095;48.066;8.540;2023-02-22T01:33:51;0.80;99.90
21861;DHT22;11095;48.066;8.540;2023-02-22T01:36:18;0.80;99.90
21861;DHT22;11095;48.066;8.540;2023-02-22T01:38:44;0.80;99.90
21861;DHT22;11095;48.066;8.540;2023-02-22T01:41:11;0.70;99.90
21861;DHT22;11095;48.066;8.540;2023-02-22T01:43:37;0.70;99.90
21861;DHT22;11095;48.066;8.540;2023-02-22T01:46:18;0.70;99.90
21861;DHT22;11095;48.066;8.540;2023-02-22T01:53:40;0.80;99.90
21861;DHT22;11095;48.066;8.540;2023-02-22T01:56:09;0.80;99.90
21861;DHT22;11095;48.066;8.540;2023-02-22T01:58:36;0.80;99.90
21861;DHT22;11095;48.066;8.540;2023-02-22T02:01:04;0.70;99.90
21861;DHT22;11095;48.066;8.540;2023-02-22T02:03:33;0.70;99.90
21861;DHT22;11095;48.066;8.540;2023-02-22T02:06:02;0.60;99.90
21861;DHT22;11095;48.066;8.540;2023-02-22T02:10:58;0.60;99.90
21861;DHT22;11095;48.066;8.540;2023-02-22T02:13:25;0.60;99.90
21861;DHT22;11095;48.066;8.540;2023-02-22T02:15:55;0.50;99.90
21861;DHT22;11095;48.066;8.540;2023-02-22T02:18:21;0.50;99.90
21861;DHT22;11095;48.066;8.540;2023-02-22T02:21:12;0.40;99.90
21861;DHT22;11095;48.066;8.540;2023-02-22T02:27:17;0.40;99.90
21861;DHT22;11095;48.066;8.540;2023-02-22T02:35:30;0.30;99.90
21861;DHT22;11095;48.066;8.540;2023-02-22T02:38:01;0.30;99.90
21861;DHT22;11095;48.066;8.540;2023-02-22T02:41:20;0.30;99.90
21861;DHT22;11095;48.066;8.540;2023-02-22T02:46:39;0.20;99.90
21861;DHT22;11095;48.066;8.540;2023-02-22T02:49:12;0.10;99.90
21861;DHT22;11095;48.066;8.540;2023-02-22T02:51:43;0.10;99.90
21861;DHT22;11095;48.066;8.540;2023-02-22T02:54:10;0.10;99.90
21861;DHT22;11095;48.066;8.540;2023-02-22T02:56:37;0.10;99.90
21861;DHT22;11095;48.066;8.540;2023-02-22T02:59:18;0.00;99.90
21861;DHT22;11095;48.066;8.540;2023-02-22T03:07:48;-0.20;99.90
21861;DHT22;11095;48.066;8.540;2023-02-22T03:11:13;-0.10;99.90
21861;DHT22;11095;48.066;8.540;2023-02-22T03:13:17;-0.20;99.90
21861;DHT22;11095;48.066;8.540;2023-02-22T03:15:54;-0.20;99.90
21861;DHT22;11095;48.066;8.540;2023-02-22T03:18:28;-0.20;99.90
21861;DHT22;11095;48.066;8.540;2023-02-22T03:26:43;-0.30;99.90
21861;DHT22;11095;48.066;8.540;2023-02-22T03:29:12;-0.20;99.90
21861;DHT22;11095;48.066;8.540;2023-02-22T03:31:45;-0.20;99.90
21861;DHT22;11095;48.066;8.540;2023-02-22T03:34:22;-0.30;99.90
21861;DHT22;11095;48.066;8.540;2023-02-22T03:36:55;-0.20;99.90
21861;DHT22;11095;48.066;8.540;2023-02-22T03:39:24;-0.20;99.90
21861;DHT22;11095;48.066;8.540;2023-02-22T03:41:58;-0.20;99.90
21861;DHT22;11095;48.066;8.540;2023-02-22T03:44:27;-0.20;99.90
21861;DHT22;11095;48.066;8.540;2023-02-22T03:46:55;-0.20;99.90
21861;DHT22;11095;48.066;8.540;2023-02-22T03:49:41;-0.20;99.90
21861;DHT22;11095;48.066;8.540;2023-02-22T03:52:09;-0.20;99.90
21861;DHT22;11095;48.066;8.540;2023-02-22T03:54:37;-0.30;99.90
21861;DHT22;11095;48.066;8.540;2023-02-22T03:57:10;-0.30;99.90
21861;DHT22;11095;48.066;8.540;2023-02-22T03:59:37;-0.20;99.90
21861;DHT22;11095;48.066;8.540;2023-02-22T04:02:04;-0.30;99.90
21861;DHT22;11095;48.066;8.540;2023-02-22T04:04:29;-0.30;99.90
21861;DHT22;11095;48.066;8.540;2023-02-22T04:06:55;-0.30;99.90
21861;DHT22;11095;48.066;8.540;2023-02-22T04:09:20;-0.30;99.90
21861;DHT22;11095;48.066;8.540;2023-02-22T04:11:46;-0.30;99.90
21861;DHT22;11095;48.066;8.540;2023-02-22T04:14:12;-0.30;99.90
21861;DHT22;11095;48.066;8.540;2023-02-22T04:16:38;-0.40;99.90
21861;DHT22;11095;48.066;8.540;2023-02-22T04:19:04;-0.40;99.90
21861;DHT22;11095;48.066;8.540;2023-02-22T04:21:30;-0.50;99.90
21861;DHT22;11095;48.066;8.540;2023-02-22T04:23:57;-0.50;99.90
21861;DHT22;11095;48.066;8.540;2023-02-22T04:26:22;-0.50;99.90
21861;DHT22;11095;48.066;8.540;2023-02-22T04:28:48;-0.60;99.90
21861;DHT22;11095;48.066;8.540;2023-02-22T04:31:14;-0.60;99.90
21861;DHT22;11095;48.066;8.540;2023-02-22T04:33:40;-0.60;99.90
21861;DHT22;11095;48.066;8.540;2023-02-22T04:36:06;-0.60;99.90
21861;DHT22;11095;48.066;8.540;2023-02-22T04:38:32;-0.60;99.90
21861;DHT22;11095;48.066;8.540;2023-02-22T04:40:57;-0.60;99.90
21861;DHT22;11095;48.066;8.540;2023-02-22T04:43:23;-0.60;99.90
21861;DHT22;11095;48.066;8.540;2023-02-22T04:45:49;-0.70;99.90
21861;DHT22;11095;48.066;8.540;2023-02-22T04:48:15;-0.70;99.90
21861;DHT22;11095;48.066;8.540;2023-02-22T04:50:41;-0.70;99.90
21861;DHT22;11095;48.066;8.540;2023-02-22T04:53:07;-0.70;99.90
21861;DHT22;11095;48.066;8.540;2023-02-22T04:55:33;-0.70;99.90
21861;DHT22;11095;48.066;8.540;2023-02-22T04:57:58;-0.70;99.90
21861;DHT22;11095;48.066;8.540;2023-02-22T05:00:24;-0.70;99.90
21861;DHT22;11095;48.066;8.540;2023-02-22T05:02:50;-0.70;99.90
21861;DHT22;11095;48.066;8.540;2023-02-22T05:05:19;-0.80;99.90
21861;DHT22;11095;48.066;8.540;2023-02-22T05:07:46;-0.80;99.90
21861;DHT22;11095;48.066;8.540;2023-02-22T05:10:12;-0.80;99.90
21861;DHT22;11095;48.066;8.540;2023-02-22T05:12:38;-0.80;99.90
21861;DHT22;11095;48.066;8.540;2023-02-22T05:15:05;-0.80;99.90
21861;DHT22;11095;48.066;8.540;2023-02-22T05:17:31;-0.80;99.90
21861;DHT22;11095;48.066;8.540;2023-02-22T05:19:57;-0.80;99.90
21861;DHT22;11095;48.066;8.540;2023-02-22T05:22:22;-0.80;99.90
21861;DHT22;11095;48.066;8.540;2023-02-22T05:24:49;-0.80;99.90
21861;DHT22;11095;48.066;8.540;2023-02-22T05:27:17;-0.80;99.90
21861;DHT22;11095;48.066;8.540;2023-02-22T05:29:43;-0.90;99.90
21861;DHT22;11095;48.066;8.540;2023-02-22T05:32:08;-0.80;99.90
21861;DHT22;11095;48.066;8.540;2023-02-22T05:34:34;-0.90;99.90
21861;DHT22;11095;48.066;8.540;2023-02-22T05:37:00;-0.90;99.90
21861;DHT22;11095;48.066;8.540;2023-02-22T05:39:26;-0.90;99.90
21861;DHT22;11095;48.066;8.540;2023-02-22T05:41:51;-0.90;99.90
21861;DHT22;11095;48.066;8.540;2023-02-22T05:44:17;-0.90;99.90
21861;DHT22;11095;48.066;8.540;2023-02-22T05:46:43;-1.00;99.90
21861;DHT22;11095;48.066;8.540;2023-02-22T05:49:08;-1.00;99.90
21861;DHT22;11095;48.066;8.540;2023-02-22T05:51:34;-1.00;99.90
21861;DHT22;11095;48.066;8.540;2023-02-22T05:53:59;-1.00;99.90
21861;DHT22;11095;48.066;8.540;2023-02-22T05:56:27;-1.00;99.90
21861;DHT22;11095;48.066;8.540;2023-02-22T05:58:53;-0.90;99.90
21861;DHT22;11095;48.066;8.540;2023-02-22T06:01:19;-0.90;99.90
21861;DHT22;11095;48.066;8.540;2023-02-22T06:03:47;-0.90;99.90
21861;DHT22;11095;48.066;8.540;2023-02-22T06:06:13;-0.90;99.90
21861;DHT22;11095;48.066;8.540;2023-02-22T06:08:38;-0.80;99.90
21861;DHT22;11095;48.066;8.540;2023-02-22T06:11:04;-0.80;99.90
21861;DHT22;11095;48.066;8.540;2023-02-22T06:13:30;-0.80;99.90
21861;DHT22;11095;48.066;8.540;2023-02-22T06:15:55;-0.80;99.90
21861;DHT22;11095;48.066;8.540;2023-02-22T06:18:21;-0.80;99.90
21861;DHT22;11095;48.066;8.540;2023-02-22T06:20:47;-0.80;99.90
21861;DHT22;11095;48.066;8.540;2023-02-22T06:23:12;-0.70;99.90
21861;DHT22;11095;48.066;8.540;2023-02-22T06:25:38;-0.70;99.90
21861;DHT22;11095;48.066;8.540;2023-02-22T06:28:04;-0.70;99.90
21861;DHT22;11095;48.066;8.540;2023-02-22T06:30:29;-0.70;99.90
21861;DHT22;11095;48.066;8.540;2023-02-22T06:32:55;-0.60;99.90
21861;DHT22;11095;48.066;8.540;2023-02-22T06:35:21;-0.60;99.90
21861;DHT22;11095;48.066;8.540;2023-02-22T06:37:47;-0.50;99.90
21861;DHT22;11095;48.066;8.540;2023-02-22T06:40:14;-0.40;99.90
21861;DHT22;11095;48.066;8.540;2023-02-22T06:42:39;-0.30;99.90
21861;DHT22;11095;48.066;8.540;2023-02-22T06:45:06;-0.20;99.90
21861;DHT22;11095;48.066;8.540;2023-02-22T06:47:32;-0.10;99.90
21861;DHT22;11095;48.066;8.540;2023-02-22T06:49:58;0.00;99.90
21861;DHT22;11095;48.066;8.540;2023-02-22T06:52:25;0.10;99.90
21861;DHT22;11095;48.066;8.540;2023-02-22T06:54:51;0.20;99.90
21861;DHT22;11095;48.066;8.540;2023-02-22T06:57:17;0.30;99.90
21861;DHT22;11095;48.066;8.540;2023-02-22T06:59:43;0.30;99.90
21861;DHT22;11095;48.066;8.540;2023-02-22T07:02:13;0.40;99.90
21861;DHT22;11095;48.066;8.540;2023-02-22T07:04:39;0.50;99.90
21861;DHT22;11095;48.066;8.540;2023-02-22T07:07:04;0.70;99.90
21861;DHT22;11095;48.066;8.540;2023-02-22T07:09:30;1.10;99.90
21861;DHT22;11095;48.066;8.540;2023-02-22T07:11:56;1.30;99.90
21861;DHT22;11095;48.066;8.540;2023-02-22T07:14:21;1.60;99.90
21861;DHT22;11095;48.066;8.540;2023-02-22T07:16:47;1.90;99.90
21861;DHT22;11095;48.066;8.540;2023-02-22T07:19:13;2.60;99.90
21861;DHT22;11095;48.066;8.540;2023-02-22T07:21:38;3.80;99.90
21861;DHT22;11095;48.066;8.540;2023-02-22T07:24:04;5.10;99.90
21861;DHT22;11095;48.066;8.540;2023-02-22T07:26:30;6.20;99.90
21861;DHT22;11095;48.066;8.540;2023-02-22T07:29:02;7.20;99.90
21861;DHT22;11095;48.066;8.540;2023-02-22T07:31:27;8.00;99.90
21861;DHT22;11095;48.066;8.540;2023-02-22T07:33:53;8.90;99.90
21861;DHT22;11095;48.066;8.540;2023-02-22T07:36:19;10.00;99.90
21861;DHT22;11095;48.066;8.540;2023-02-22T07:38:45;10.80;99.90
21861;DHT22;11095;48.066;8.540;2023-02-22T07:41:12;11.10;99.90
21861;DHT22;11095;48.066;8.540;2023-02-22T07:43:58;10.50;99.90
21861;DHT22;11095;48.066;8.540;2023-02-22T07:46:26;9.70;99.90
21861;DHT22;11095;48.066;8.540;2023-02-22T07:48:58;9.80;99.90
21861;DHT22;11095;48.066;8.540;2023-02-22T07:51:30;10.10;99.90
21861;DHT22;11095;48.066;8.540;2023-02-22T07:53:58;10.20;99.90
21861;DHT22;11095;48.066;8.540;2023-02-22T07:56:27;9.90;99.90
21861;DHT22;11095;48.066;8.540;2023-02-22T07:58:53;9.30;99.90
21861;DHT22;11095;48.066;8.540;2023-02-22T08:01:19;8.70;99.90
21861;DHT22;11095;48.066;8.540;2023-02-22T08:03:44;8.20;99.90
21861;DHT22;11095;48.066;8.540;2023-02-22T08:06:14;7.70;99.90
21861;DHT22;11095;48.066;8.540;2023-02-22T08:08:43;7.30;99.90
21861;DHT22;11095;48.066;8.540;2023-02-22T08:11:08;7.00;99.90
21861;DHT22;11095;48.066;8.540;2023-02-22T08:13:40;6.70;99.90
21861;DHT22;11095;48.066;8.540;2023-02-22T08:16:16;6.60;99.90
21861;DHT22;11095;48.066;8.540;2023-02-22T08:18:45;6.50;99.90
21861;DHT22;11095;48.066;8.540;2023-02-22T08:21:17;6.40;99.90
21861;DHT22;11095;48.066;8.540;2023-02-22T08:23:46;6.20;99.90
21861;DHT22;11095;48.066;8.540;2023-02-22T08:26:24;5.90;99.90
21861;DHT22;11095;48.066;8.540;2023-02-22T08:28:59;5.90;99.90
21861;DHT22;11095;48.066;8.540;2023-02-22T08:31:30;6.10;99.90
21861;DHT22;11095;48.066;8.540;2023-02-22T08:33:56;6.50;99.90
21861;DHT22;11095;48.066;8.540;2023-02-22T08:36:25;6.80;99.90
21861;DHT22;11095;48.066;8.540;2023-02-22T08:38:57;7.20;99.90
21861;DHT22;11095;48.066;8.540;2023-02-22T08:41:26;7.60;99.90
21861;DHT22;11095;48.066;8.540;2023-02-22T08:43:54;8.00;99.90
21861;DHT22;11095;48.066;8.540;2023-02-22T08:46:28;8.70;99.90
21861;DHT22;11095;48.066;8.540;2023-02-22T08:49:14;9.70;99.90
21861;DHT22;11095;48.066;8.540;2023-02-22T08:51:42;10.60;99.90
21861;DHT22;11095;48.066;8.540;2023-02-22T08:54:08;11.40;99.90
21861;DHT22;11095;48.066;8.540;2023-02-22T08:56:36;12.20;99.90
21861;DHT22;11095;48.066;8.540;2023-02-22T08:59:08;12.80;99.90
21861;DHT22;11095;48.066;8.540;2023-02-22T09:01:43;13.30;99.90
21861;DHT22;11095;48.066;8.540;2023-02-22T09:04:14;13.70;99.90
21861;DHT22;11095;48.066;8.540;2023-02-22T09:06:41;14.10;99.90
21861;DHT22;11095;48.066;8.540;2023-02-22T09:09:07;14.20;99.90
21861;DHT22;11095;48.066;8.540;2023-02-22T09:11:32;14.10;99.90
21861;DHT22;11095;48.066;8.540;2023-02-22T09:14:06;13.90;99.90
21861;DHT22;11095;48.066;8.540;2023-02-22T09:16:31;13.60;99.90
21861;DHT22;11095;48.066;8.540;2023-02-22T09:18:57;13.40;99.90
21861;DHT22;11095;48.066;8.540;2023-02-22T09:21:23;13.20;99.90
21861;DHT22;11095;48.066;8.540;2023-02-22T09:23:55;13.10;99.90
21861;DHT22;11095;48.066;8.540;2023-02-22T09:26:34;13.20;99.90
21861;DHT22;11095;48.066;8.540;2023-02-22T09:29:25;13.20;99.90
21861;DHT22;11095;48.066;8.540;2023-02-22T09:31:53;13.20;99.90
21861;DHT22;11095;48.066;8.540;2023-02-22T09:34:27;13.20;99.90
21861;DHT22;11095;48.066;8.540;2023-02-22T09:36:59;13.40;99.90
21861;DHT22;11095;48.066;8.540;2023-02-22T09:39:34;13.80;99.90
21861;DHT22;11095;48.066;8.540;2023-02-22T09:42:24;14.30;99.90
21861;DHT22;11095;48.066;8.540;2023-02-22T09:45:02;14.50;99.90
21861;DHT22;11095;48.066;8.540;2023-02-22T09:47:48;14.90;99.90
21861;DHT22;11095;48.066;8.540;2023-02-22T09:50:27;15.10;99.90
21861;DHT22;11095;48.066;8.540;2023-02-22T09:53:19;15.40;99.90
21861;DHT22;11095;48.066;8.540;2023-02-22T09:56:00;15.40;99.90
21861;DHT22;11095;48.066;8.540;2023-02-22T09:58:38;15.30;99.90
21861;DHT22;11095;48.066;8.540;2023-02-22T10:01:30;15.40;99.90
21861;DHT22;11095;48.066;8.540;2023-02-22T10:04:18;15.50;99.90
21861;DHT22;11095;48.066;8.540;2023-02-22T10:07:00;15.60;99.90
21861;DHT22;11095;48.066;8.540;2023-02-22T10:09:33;15.90;99.90
21861;DHT22;11095;48.066;8.540;2023-02-22T10:12:09;16.10;99.90
21861;DHT22;11095;48.066;8.540;2023-02-22T10:18:11;15.90;99.90
21861;DHT22;11095;48.066;8.540;2023-02-22T10:23:35;16.10;99.90
21861;DHT22;11095;48.066;8.540;2023-02-22T10:26:15;16.30;99.90
21861;DHT22;11095;48.066;8.540;2023-02-22T10:29:04;16.60;99.90
21861;DHT22;11095;48.066;8.540;2023-02-22T10:31:34;16.80;99.90
21861;DHT22;11095;48.066;8.540;2023-02-22T10:34:06;16.80;99.90
21861;DHT22;11095;48.066;8.540;2023-02-22T10:36:34;16.90;99.90
21861;DHT22;11095;48.066;8.540;2023-02-22T10:39:15;17.20;99.90
21861;DHT22;11095;48.066;8.540;2023-02-22T10:41:50;17.80;99.90
21861;DHT22;11095;48.066;8.540;2023-02-22T10:44:17;18.40;99.90
21861;DHT22;11095;48.066;8.540;2023-02-22T10:46:44;18.90;99.90
21861;DHT22;11095;48.066;8.540;2023-02-22T10:49:20;19.50;99.90
21861;DHT22;11095;48.066;8.540;2023-02-22T10:51:58;19.60;99.90
21861;DHT22;11095;48.066;8.540;2023-02-22T10:54:29;19.50;99.30
21861;DHT22;11095;48.066;8.540;2023-02-22T10:56:56;19.40;99.80
21861;DHT22;11095;48.066;8.540;2023-02-22T10:59:33;19.70;99.50
21861;DHT22;11095;48.066;8.540;2023-02-22T11:02:00;19.70;97.90
21861;DHT22;11095;48.066;8.540;2023-02-22T11:04:45;18.70;98.90
21861;DHT22;11095;48.066;8.540;2023-02-22T11:07:23;18.80;98.90
21861;DHT22;11095;48.066;8.540;2023-02-22T11:10:00;18.70;98.30
21861;DHT22;11095;48.066;8.540;2023-02-22T11:12:32;18.10;98.80
21861;DHT22;11095;48.066;8.540;2023-02-22T11:17:45;16.20;99.70
21861;DHT22;11095;48.066;8.540;2023-02-22T11:22:45;15.00;99.90
21861;DHT22;11095;48.066;8.540;2023-02-22T11:25:18;14.60;99.90
21861;DHT22;11095;48.066;8.540;2023-02-22T11:27:45;14.50;99.90
21861;DHT22;11095;48.066;8.540;2023-02-22T11:30:31;14.40;99.90
21861;DHT22;11095;48.066;8.540;2023-02-22T11:36:01;14.70;99.90
21861;DHT22;11095;48.066;8.540;2023-02-22T11:38:30;14.90;99.90
21861;DHT22;11095;48.066;8.540;2023-02-22T11:41:17;15.00;99.90
21861;DHT22;11095;48.066;8.540;2023-02-22T11:43:48;15.20;99.90
21861;DHT22;11095;48.066;8.540;2023-02-22T11:57:35;14.80;99.90
21861;DHT22;11095;48.066;8.540;2023-02-22T12:19:46;14.50;99.90
21861;DHT22;11095;48.066;8.540;2023-02-22T12:22:31;14.80;99.90
21861;DHT22;11095;48.066;8.540;2023-02-22T12:25:19;15.00;99.90
21861;DHT22;11095;48.066;8.540;2023-02-22T12:27:49;15.10;99.90
21861;DHT22;11095;48.066;8.540;2023-02-22T12:30:24;15.20;99.90
21861;DHT22;11095;48.066;8.540;2023-02-22T12:32:59;15.20;99.90
21861;DHT22;11095;48.066;8.540;2023-02-22T12:35:36;15.30;99.90
21861;DHT22;11095;48.066;8.540;2023-02-22T12:38:14;15.50;99.90
21861;DHT22;11095;48.066;8.540;2023-02-22T12:41:00;15.60;99.90
21861;DHT22;11095;48.066;8.540;2023-02-22T12:43:44;15.70;99.90
21861;DHT22;11095;48.066;8.540;2023-02-22T12:46:19;15.90;99.90
21861;DHT22;11095;48.066;8.540;2023-02-22T12:52:13;16.20;99.90
21861;DHT22;11095;48.066;8.540;2023-02-22T12:57:40;16.30;99.90
21861;DHT22;11095;48.066;8.540;2023-02-22T13:02:47;16.50;99.90
21861;DHT22;11095;48.066;8.540;2023-02-22T13:05:17;16.50;99.90
21861;DHT22;11095;48.066;8.540;2023-02-22T13:08:08;16.60;99.90
21861;DHT22;11095;48.066;8.540;2023-02-22T13:16:06;17.00;99.90
21861;DHT22;11095;48.066;8.540;2023-02-22T13:18:44;16.90;99.90
21861;DHT22;11095;48.066;8.540;2023-02-22T13:24:29;16.60;99.90
21861;DHT22;11095;48.066;8.540;2023-02-22T13:27:01;16.60;99.90
21861;DHT22;11095;48.066;8.540;2023-02-22T13:29:38;16.60;99.90
21861;DHT22;11095;48.066;8.540;2023-02-22T13:54:00;16.50;99.90
21861;DHT22;11095;48.066;8.540;2023-02-22T13:56:27;16.40;99.90
21861;DHT22;11095;48.066;8.540;2023-02-22T13:58:57;16.40;99.90
21861;DHT22;11095;48.066;8.540;2023-02-22T14:01:45;16.40;99.90
21861;DHT22;11095;48.066;8.540;2023-02-22T14:06:49;16.20;99.90
21861;DHT22;11095;48.066;8.540;2023-02-22T14:09:39;16.00;99.90
21861;DHT22;11095;48.066;8.540;2023-02-22T14:12:02;15.90;99.90
21861;DHT22;11095;48.066;8.540;2023-02-22T14:14:27;15.70;99.90
21861;DHT22;11095;48.066;8.540;2023-02-22T14:20:17;15.30;99.90
21861;DHT22;11095;48.066;8.540;2023-02-22T14:22:48;15.20;99.90
21861;DHT22;11095;48.066;8.540;2023-02-22T14:25:34;15.20;99.90
21861;DHT22;11095;48.066;8.540;2023-02-22T14:28:02;15.20;99.90
21861;DHT22;11095;48.066;8.540;2023-02-22T14:30:31;15.20;99.90
21861;DHT22;11095;48.066;8.540;2023-02-22T14:32:58;15.10;99.90
21861;DHT22;11095;48.066;8.540;2023-02-22T14:35:30;15.00;99.90
21861;DHT22;11095;48.066;8.540;2023-02-22T14:38:03;14.90;99.90
21861;DHT22;11095;48.066;8.540;2023-02-22T14:40:33;14.80;99.90
21861;DHT22;11095;48.066;8.540;2023-02-22T14:45:32;14.50;99.90
21861;DHT22;11095;48.066;8.540;2023-02-22T14:48:07;14.40;99.90
21861;DHT22;11095;48.066;8.540;2023-02-22T14:50:43;14.30;99.90
21861;DHT22;11095;48.066;8.540;2023-02-22T14:53:39;14.30;99.90
21861;DHT22;11095;48.066;8.540;2023-02-22T14:56:27;14.20;99.90
21861;DHT22;11095;48.066;8.540;2023-02-22T15:01:27;14.00;99.90
21861;DHT22;11095;48.066;8.540;2023-02-22T15:06:43;13.90;99.90
21861;DHT22;11095;48.066;8.540;2023-02-22T15:09:13;13.90;99.90
21861;DHT22;11095;48.066;8.540;2023-02-22T15:11:49;13.70;99.90
21861;DHT22;11095;48.066;8.540;2023-02-22T15:14:21;13.60;99.90
21861;DHT22;11095;48.066;8.540;2023-02-22T15:16:59;13.40;99.90
21861;DHT22;11095;48.066;8.540;2023-02-22T15:19:30;13.30;99.90
21861;DHT22;11095;48.066;8.540;2023-02-22T15:21:58;13.10;99.90
21861;DHT22;11095;48.066;8.540;2023-02-22T15:24:27;13.00;99.90
21861;DHT22;11095;48.066;8.540;2023-02-22T15:26:54;12.90;99.90
21861;DHT22;11095;48.066;8.540;2023-02-22T15:29:29;12.80;99.90
21861;DHT22;11095;48.066;8.540;2023-02-22T15:31:57;12.70;99.90
21861;DHT22;11095;48.066;8.540;2023-02-22T15:36:54;12.50;99.90
21861;DHT22;11095;48.066;8.540;2023-02-22T15:39:30;12.40;99.90
21861;DHT22;11095;48.066;8.540;2023-02-22T15:44:35;12.30;99.90
21861;DHT22;11095;48.066;8.540;2023-02-22T15:47:02;12.20;99.90
21861;DHT22;11095;48.066;8.540;2023-02-22T15:49:27;12.10;99.90
21861;DHT22;11095;48.066;8.540;2023-02-22T15:52:04;12.10;99.90
21861;DHT22;11095;48.066;8.540;2023-02-22T15:54:41;12.10;99.90
21861;DHT22;11095;48.066;8.540;2023-02-22T15:57:11;12.00;99.90
21861;DHT22;11095;48.066;8.540;2023-02-22T15:59:43;11.90;99.90
21861;DHT22;11095;48.066;8.540;2023-02-22T16:02:28;11.80;99.90
21861;DHT22;11095;48.066;8.540;2023-02-22T16:05:01;11.70;99.90
21861;DHT22;11095;48.066;8.540;2023-02-22T16:07:28;11.60;99.90
21861;DHT22;11095;48.066;8.540;2023-02-22T16:09:54;11.50;99.90
21861;DHT22;11095;48.066;8.540;2023-02-22T16:14:46;11.30;99.90
21861;DHT22;11095;48.066;8.540;2023-02-22T16:17:37;11.20;99.90
21861;DHT22;11095;48.066;8.540;2023-02-22T16:22:43;11.00;99.90
21861;DHT22;11095;48.066;8.540;2023-02-22T16:27:45;10.80;99.90
21861;DHT22;11095;48.066;8.540;2023-02-22T16:30:25;10.80;99.90
21861;DHT22;11095;48.066;8.540;2023-02-22T16:32:53;10.70;99.90
21861;DHT22;11095;48.066;8.540;2023-02-22T16:35:20;10.70;99.90
21861;DHT22;11095;48.066;8.540;2023-02-22T16:37:47;10.60;99.90
21861;DHT22;11095;48.066;8.540;2023-02-22T16:42:49;10.40;99.90
21861;DHT22;11095;48.066;8.540;2023-02-22T16:45:20;10.30;99.90
21861;DHT22;11095;48.066;8.540;2023-02-22T16:47:47;10.20;99.90
21861;DHT22;11095;48.066;8.540;2023-02-22T16:50:15;10.10;99.90
21861;DHT22;11095;48.066;8.540;2023-02-22T16:52:42;10.00;99.90
21861;DHT22;11095;48.066;8.540;2023-02-22T16:55:14;10.00;99.90
21861;DHT22;11095;48.066;8.540;2023-02-22T16:57:42;9.90;99.90
21861;DHT22;11095;48.066;8.540;2023-02-22T17:00:14;9.80;99.90
21861;DHT22;11095;48.066;8.540;2023-02-22T17:02:40;9.80;99.90
21861;DHT22;11095;48.066;8.540;2023-02-22T17:05:07;9.70;99.90
21861;DHT22;11095;48.066;8.540;2023-02-22T17:07:36;9.60;99.90
21861;DHT22;11095;48.066;8.540;2023-02-22T17:10:05;9.50;99.90
21861;DHT22;11095;48.066;8.540;2023-02-22T17:12:31;9.50;99.90
21861;DHT22;11095;48.066;8.540;2023-02-22T17:14:56;9.40;99.90
21861;DHT22;11095;48.066;8.540;2023-02-22T17:17:22;9.40;99.90
21861;DHT22;11095;48.066;8.540;2023-02-22T17:19:48;9.30;99.90
21861;DHT22;11095;48.066;8.540;2023-02-22T17:22:19;9.30;99.90
21861;DHT22;11095;48.066;8.540;2023-02-22T17:24:44;9.20;99.90
21861;DHT22;11095;48.066;8.540;2023-02-22T17:27:10;9.20;99.90
21861;DHT22;11095;48.066;8.540;2023-02-22T17:29:36;9.10;99.90
21861;DHT22;11095;48.066;8.540;2023-02-22T17:32:02;9.10;99.90
21861;DHT22;11095;48.066;8.540;2023-02-22T17:34:27;9.10;99.90
21861;DHT22;11095;48.066;8.540;2023-02-22T17:36:53;9.10;99.90
21861;DHT22;11095;48.066;8.540;2023-02-22T17:39:19;9.00;99.90
21861;DHT22;11095;48.066;8.540;2023-02-22T17:41:44;9.00;99.90
21861;DHT22;11095;48.066;8.540;2023-02-22T17:44:11;9.00;99.90
21861;DHT22;11095;48.066;8.540;2023-02-22T17:46:37;9.00;99.90
21861;DHT22;11095;48.066;8.540;2023-02-22T17:49:05;9.00;99.90
21861;DHT22;11095;48.066;8.540;2023-02-22T17:51:31;9.00;99.90
21861;DHT22;11095;48.066;8.540;2023-02-22T17:53:56;9.00;99.90
21861;DHT22;11095;48.066;8.540;2023-02-22T17:56:22;9.00;99.90
21861;DHT22;11095;48.066;8.540;2023-02-22T17:58:52;8.90;99.90
21861;DHT22;11095;48.066;8.540;2023-02-22T18:01:26;8.90;99.90
21861;DHT22;11095;48.066;8.540;2023-02-22T18:03:54;8.90;99.90
21861;DHT22;11095;48.066;8.540;2023-02-22T18:06:21;8.90;99.90
21861;DHT22;11095;48.066;8.540;2023-02-22T18:08:47;8.80;99.90
21861;DHT22;11095;48.066;8.540;2023-02-22T18:11:14;8.80;99.90
21861;DHT22;11095;48.066;8.540;2023-02-22T18:13:40;8.80;99.90
21861;DHT22;11095;48.066;8.540;2023-02-22T18:16:06;8.80;99.90
21861;DHT22;11095;48.066;8.540;2023-02-22T18:18:32;8.80;99.90
21861;DHT22;11095;48.066;8.540;2023-02-22T18:20:58;8.70;99.90